sensor_id;sensor_type;location;lat;lon;timestamp;noise_LAeq;noise_LA_min;noise_LA_max;noise_LA01;noise_LA95
61321;Laerm;17737;52.586;13.284;2022-10-17T00:01:08;43.04;41.09;50.22;;
61321;Laerm;17737;52.586;13.284;2022-10-17T00:03:38;42.76;41.03;50.15;;
61321;Laerm;17737;52.586;13.284;2022-10-17T00:06:09;43.97;41.09;54.71;;
61321;Laerm;17737;52.586;13.284;2022-10-17T00:08:38;50.40;41.22;65.13;;
61321;Laerm;17737;52.586;13.284;2022-10-17T00:11:14;42.46;40.68;49.69;;
61321;Laerm;17737;52.586;13.284;2022-10-17T00:13:43;42.45;41.03;50.09;;
61321;Laerm;17737;52.586;13.284;2022-10-17T00:16:12;50.05;40.96;64.65;;
61321;Laerm;17737;52.586;13.284;2022-10-17T00:18:40;43.35;41.41;50.12;;
61321;Laerm;17737;52.586;13.284;2022-10-17T00:21:15;42.87;41.03;50.30;;
61321;Laerm;17737;52.586;13.284;2022-10-17T00:23:42;42.79;41.03;50.14;;
61321;Laerm;17737;52.586;13.284;2022-10-17T00:26:11;42.49;40.96;50.08;;
61321;Laerm;17737;52.586;13.284;2022-10-17T00:28:40;42.59;40.68;50.22;;
61321;Laerm;17737;52.586;13.284;2022-10-17T00:31:08;48.35;41.29;61.98;;
61321;Laerm;17737;52.586;13.284;2022-10-17T00:33:36;49.92;40.89;64.30;;
61321;Laerm;17737;52.586;13.284;2022-10-17T00:36:08;43.63;41.03;51.37;;
61321;Laerm;17737;52.586;13.284;2022-10-17T00:38:36;43.28;41.09;50.68;;
61321;Laerm;17737;52.586;13.284;2022-10-17T00:41:05;42.71;41.22;50.35;;
61321;Laerm;17737;52.586;13.284;2022-10-17T00:46:29;49.44;39.53;65.67;;
61321;Laerm;17737;52.586;13.284;2022-10-17T00:49:02;41.72;40.14;49.68;;
61321;Laerm;17737;52.586;13.284;2022-10-17T00:51:37;42.05;40.82;50.32;;
61321;Laerm;17737;52.586;13.284;2022-10-17T00:54:07;54.01;40.96;67.94;;
61321;Laerm;17737;52.586;13.284;2022-10-17T00:56:36;42.11;40.82;49.64;;
61321;Laerm;17737;52.586;13.284;2022-10-17T00:59:07;42.44;41.09;50.16;;
61321;Laerm;17737;52.586;13.284;2022-10-17T01:01:37;42.49;40.96;49.59;;
61321;Laerm;17737;52.586;13.284;2022-10-17T01:04:05;51.34;41.03;66.03;;
61321;Laerm;17737;52.586;13.284;2022-10-17T01:06:33;46.73;41.09;67.54;;
61321;Laerm;17737;52.586;13.284;2022-10-17T01:09:01;42.71;41.09;52.59;;
61321;Laerm;17737;52.586;13.284;2022-10-17T01:11:38;42.60;41.03;50.53;;
61321;Laerm;17737;52.586;13.284;2022-10-17T01:14:21;50.63;41.22;67.89;;
61321;Laerm;17737;52.586;13.284;2022-10-17T01:17:04;42.57;41.16;53.56;;
61321;Laerm;17737;52.586;13.284;2022-10-17T01:20:13;50.83;40.46;64.14;;
61321;Laerm;17737;52.586;13.284;2022-10-17T01:22:58;48.24;40.96;62.93;;
61321;Laerm;17737;52.586;13.284;2022-10-17T01:25:47;45.83;41.22;59.13;;
61321;Laerm;17737;52.586;13.284;2022-10-17T01:28:35;44.98;41.03;58.84;;
61321;Laerm;17737;52.586;13.284;2022-10-17T01:31:18;42.27;40.75;50.39;;
61321;Laerm;17737;52.586;13.284;2022-10-17T01:33:58;42.48;40.46;50.36;;
61321;Laerm;17737;52.586;13.284;2022-10-17T01:36:38;51.72;40.96;65.46;;
61321;Laerm;17737;52.586;13.284;2022-10-17T01:39:18;42.50;41.09;49.78;;
61321;Laerm;17737;52.586;13.284;2022-10-17T01:42:02;42.69;41.22;50.39;;
61321;Laerm;17737;52.586;13.284;2022-10-17T01:44:41;42.45;41.16;50.14;;
61321;Laerm;17737;52.586;13.284;2022-10-17T01:47:19;53.37;41.22;70.56;;
61321;Laerm;17737;52.586;13.284;2022-10-17T01:49:51;57.53;41.41;69.90;;
61321;Laerm;17737;52.586;13.284;2022-10-17T01:52:26;48.75;41.22;63.54;;
61321;Laerm;17737;52.586;13.284;2022-10-17T01:54:59;42.86;41.16;50.47;;
61321;Laerm;17737;52.586;13.284;2022-10-17T01:57:36;46.28;41.16;58.92;;
61321;Laerm;17737;52.586;13.284;2022-10-17T02:00:11;49.28;41.16;63.22;;
61321;Laerm;17737;52.586;13.284;2022-10-17T02:02:44;48.79;40.96;62.09;;
61321;Laerm;17737;52.586;13.284;2022-10-17T02:05:16;42.55;41.09;49.87;;
61321;Laerm;17737;52.586;13.284;2022-10-17T02:07:45;42.55;41.09;50.48;;
61321;Laerm;17737;52.586;13.284;2022-10-17T02:10:32;47.63;41.29;61.53;;
61321;Laerm;17737;52.586;13.284;2022-10-17T02:13:09;42.67;41.22;50.09;;
61321;Laerm;17737;52.586;13.284;2022-10-17T02:16:11;42.75;41.09;50.40;;
61321;Laerm;17737;52.586;13.284;2022-10-17T02:19:04;42.60;41.16;49.92;;
61321;Laerm;17737;52.586;13.284;2022-10-17T02:21:45;52.09;41.35;69.69;;
61321;Laerm;17737;52.586;13.284;2022-10-17T02:24:23;50.36;41.41;65.05;;
61321;Laerm;17737;52.586;13.284;2022-10-17T02:27:05;42.78;41.09;50.17;;
61321;Laerm;17737;52.586;13.284;2022-10-17T02:29:46;43.42;41.71;50.32;;
61321;Laerm;17737;52.586;13.284;2022-10-17T02:32:20;43.02;41.41;50.54;;
61321;Laerm;17737;52.586;13.284;2022-10-17T02:34:55;55.32;41.53;70.05;;
61321;Laerm;17737;52.586;13.284;2022-10-17T02:37:28;52.67;41.93;68.16;;
61321;Laerm;17737;52.586;13.284;2022-10-17T02:39:59;50.49;41.98;63.02;;
61321;Laerm;17737;52.586;13.284;2022-10-17T02:42:30;55.52;41.71;72.00;;
61321;Laerm;17737;52.586;13.284;2022-10-17T02:45:02;44.74;41.41;55.59;;
61321;Laerm;17737;52.586;13.284;2022-10-17T02:47:36;43.34;41.65;50.13;;
61321;Laerm;17737;52.586;13.284;2022-10-17T02:50:08;47.27;42.04;59.03;;
61321;Laerm;17737;52.586;13.284;2022-10-17T02:52:43;43.87;41.93;51.54;;
61321;Laerm;17737;52.586;13.284;2022-10-17T02:55:18;52.41;42.19;65.02;;
61321;Laerm;17737;52.586;13.284;2022-10-17T02:57:49;59.91;42.14;74.74;;
61321;Laerm;17737;52.586;13.284;2022-10-17T03:00:21;52.67;42.14;64.04;;
61321;Laerm;17737;52.586;13.284;2022-10-17T03:02:52;55.95;41.98;66.05;;
61321;Laerm;17737;52.586;13.284;2022-10-17T03:05:24;51.92;42.19;63.17;;
61321;Laerm;17737;52.586;13.284;2022-10-17T03:07:53;57.88;42.04;70.13;;
61321;Laerm;17737;52.586;13.284;2022-10-17T03:10:21;59.64;41.59;75.42;;
61321;Laerm;17737;52.586;13.284;2022-10-17T03:12:49;57.73;45.20;65.33;;
61321;Laerm;17737;52.586;13.284;2022-10-17T03:15:17;55.71;43.51;67.94;;
61321;Laerm;17737;52.586;13.284;2022-10-17T03:17:45;56.30;42.39;66.74;;
61321;Laerm;17737;52.586;13.284;2022-10-17T03:20:13;52.81;41.98;65.40;;
61321;Laerm;17737;52.586;13.284;2022-10-17T03:22:42;56.92;42.72;66.92;;
61321;Laerm;17737;52.586;13.284;2022-10-17T03:25:10;50.78;42.29;64.50;;
61321;Laerm;17737;52.586;13.284;2022-10-17T03:27:38;56.28;43.15;65.74;;
61321;Laerm;17737;52.586;13.284;2022-10-17T03:30:08;56.63;42.04;69.10;;
61321;Laerm;17737;52.586;13.284;2022-10-17T03:32:36;56.72;43.39;68.29;;
61321;Laerm;17737;52.586;13.284;2022-10-17T03:35:04;55.64;42.68;67.47;;
61321;Laerm;17737;52.586;13.284;2022-10-17T03:37:36;58.85;42.68;70.09;;
61321;Laerm;17737;52.586;13.284;2022-10-17T03:40:07;55.73;44.07;67.43;;
61321;Laerm;17737;52.586;13.284;2022-10-17T03:42:35;57.03;43.07;67.75;;
61321;Laerm;17737;52.586;13.284;2022-10-17T03:45:03;54.79;42.54;65.34;;
61321;Laerm;17737;52.586;13.284;2022-10-17T03:47:31;58.03;43.03;69.05;;
61321;Laerm;17737;52.586;13.284;2022-10-17T03:49:59;58.57;43.47;67.48;;
61321;Laerm;17737;52.586;13.284;2022-10-17T03:52:27;59.29;44.63;71.55;;
61321;Laerm;17737;52.586;13.284;2022-10-17T03:54:55;55.17;43.69;66.12;;
61321;Laerm;17737;52.586;13.284;2022-10-17T03:57:24;56.19;42.86;69.25;;
61321;Laerm;17737;52.586;13.284;2022-10-17T03:59:52;59.31;44.45;68.72;;
61321;Laerm;17737;52.586;13.284;2022-10-17T04:02:20;56.92;43.39;67.61;;
61321;Laerm;17737;52.586;13.284;2022-10-17T04:04:48;60.69;43.43;69.06;;
61321;Laerm;17737;52.586;13.284;2022-10-17T04:07:16;60.32;44.39;71.41;;
61321;Laerm;17737;52.586;13.284;2022-10-17T04:09:44;60.28;44.36;69.33;;
61321;Laerm;17737;52.586;13.284;2022-10-17T04:12:11;60.33;43.23;72.22;;
61321;Laerm;17737;52.586;13.284;2022-10-17T04:14:41;60.19;46.18;69.20;;
61321;Laerm;17737;52.586;13.284;2022-10-17T04:17:09;59.46;43.19;69.49;;
61321;Laerm;17737;52.586;13.284;2022-10-17T04:19:36;57.49;44.23;68.08;;
61321;Laerm;17737;52.586;13.284;2022-10-17T04:22:04;61.23;44.07;71.90;;
61321;Laerm;17737;52.586;13.284;2022-10-17T04:24:33;66.42;48.49;85.99;;
61321;Laerm;17737;52.586;13.284;2022-10-17T04:27:01;60.81;44.94;68.25;;
61321;Laerm;17737;52.586;13.284;2022-10-17T04:29:29;60.51;44.11;69.71;;
61321;Laerm;17737;52.586;13.284;2022-10-17T04:31:58;61.64;45.10;71.94;;
61321;Laerm;17737;52.586;13.284;2022-10-17T04:34:26;62.11;47.18;70.89;;
61321;Laerm;17737;52.586;13.284;2022-10-17T04:36:54;62.12;46.24;69.46;;
61321;Laerm;17737;52.586;13.284;2022-10-17T04:39:22;61.98;49.70;72.15;;
61321;Laerm;17737;52.586;13.284;2022-10-17T04:41:50;58.95;44.69;68.61;;
61321;Laerm;17737;52.586;13.284;2022-10-17T04:44:18;59.90;45.87;69.82;;
61321;Laerm;17737;52.586;13.284;2022-10-17T04:46:46;60.78;46.54;70.14;;
61321;Laerm;17737;52.586;13.284;2022-10-17T04:49:15;62.56;47.45;73.66;;
61321;Laerm;17737;52.586;13.284;2022-10-17T04:51:43;59.13;46.30;66.60;;
61321;Laerm;17737;52.586;13.284;2022-10-17T04:54:11;60.73;50.54;67.76;;
61321;Laerm;17737;52.586;13.284;2022-10-17T04:56:39;61.11;48.28;67.89;;
61321;Laerm;17737;52.586;13.284;2022-10-17T04:59:06;59.69;46.16;67.70;;
61321;Laerm;17737;52.586;13.284;2022-10-17T05:01:34;61.24;46.67;70.27;;
61321;Laerm;17737;52.586;13.284;2022-10-17T05:04:02;61.19;49.86;73.01;;
61321;Laerm;17737;52.586;13.284;2022-10-17T05:06:31;60.85;44.75;68.73;;
61321;Laerm;17737;52.586;13.284;2022-10-17T05:09:00;63.54;50.18;75.30;;
61321;Laerm;17737;52.586;13.284;2022-10-17T05:11:28;60.76;45.69;71.84;;
61321;Laerm;17737;52.586;13.284;2022-10-17T05:13:59;61.94;48.81;69.05;;
61321;Laerm;17737;52.586;13.284;2022-10-17T05:16:28;60.83;44.97;68.98;;
61321;Laerm;17737;52.586;13.284;2022-10-17T05:18:58;60.83;44.89;70.73;;
61321;Laerm;17737;52.586;13.284;2022-10-17T05:21:28;60.70;46.44;74.24;;
61321;Laerm;17737;52.586;13.284;2022-10-17T05:23:58;61.61;45.41;69.81;;
61321;Laerm;17737;52.586;13.284;2022-10-17T05:26:26;61.21;48.20;68.08;;
61321;Laerm;17737;52.586;13.284;2022-10-17T05:28:53;66.13;50.18;80.73;;
61321;Laerm;17737;52.586;13.284;2022-10-17T05:31:21;69.08;60.87;86.13;;
61321;Laerm;17737;52.586;13.284;2022-10-17T05:33:49;62.12;51.75;76.11;;
61321;Laerm;17737;52.586;13.284;2022-10-17T05:36:17;62.01;50.77;70.29;;
61321;Laerm;17737;52.586;13.284;2022-10-17T05:38:48;62.88;50.33;72.05;;
61321;Laerm;17737;52.586;13.284;2022-10-17T05:41:19;60.28;45.93;70.08;;
61321;Laerm;17737;52.586;13.284;2022-10-17T05:43:47;60.52;49.03;68.30;;
61321;Laerm;17737;52.586;13.284;2022-10-17T05:46:16;60.27;50.19;67.11;;
61321;Laerm;17737;52.586;13.284;2022-10-17T05:48:44;62.44;44.86;72.55;;
61321;Laerm;17737;52.586;13.284;2022-10-17T05:51:12;62.94;47.95;75.76;;
61321;Laerm;17737;52.586;13.284;2022-10-17T05:53:41;62.00;48.16;69.75;;
61321;Laerm;17737;52.586;13.284;2022-10-17T05:56:11;61.64;47.29;70.72;;
61321;Laerm;17737;52.586;13.284;2022-10-17T05:58:42;62.13;50.79;68.95;;
61321;Laerm;17737;52.586;13.284;2022-10-17T06:01:17;61.91;48.91;70.89;;
61321;Laerm;17737;52.586;13.284;2022-10-17T06:03:45;61.22;47.20;68.97;;
61321;Laerm;17737;52.586;13.284;2022-10-17T06:06:14;60.88;47.63;72.54;;
61321;Laerm;17737;52.586;13.284;2022-10-17T06:08:43;61.96;48.69;70.30;;
61321;Laerm;17737;52.586;13.284;2022-10-17T06:11:12;63.21;49.94;76.62;;
61321;Laerm;17737;52.586;13.284;2022-10-17T06:13:41;62.99;51.19;73.58;;
61321;Laerm;17737;52.586;13.284;2022-10-17T06:16:09;62.08;48.89;68.95;;
61321;Laerm;17737;52.586;13.284;2022-10-17T06:18:37;62.84;49.10;77.24;;
61321;Laerm;17737;52.586;13.284;2022-10-17T06:21:09;63.33;47.26;75.26;;
61321;Laerm;17737;52.586;13.284;2022-10-17T06:23:37;61.39;45.59;70.90;;
61321;Laerm;17737;52.586;13.284;2022-10-17T06:26:06;58.09;44.36;65.90;;
61321;Laerm;17737;52.586;13.284;2022-10-17T06:28:35;59.70;44.27;69.13;;
61321;Laerm;17737;52.586;13.284;2022-10-17T06:31:06;59.70;45.05;68.05;;
61321;Laerm;17737;52.586;13.284;2022-10-17T06:33:34;60.13;45.20;67.80;;
61321;Laerm;17737;52.586;13.284;2022-10-17T06:36:04;61.82;45.33;71.75;;
61321;Laerm;17737;52.586;13.284;2022-10-17T06:38:33;59.63;45.06;71.28;;
61321;Laerm;17737;52.586;13.284;2022-10-17T06:41:03;65.22;55.06;79.08;;
61321;Laerm;17737;52.586;13.284;2022-10-17T06:43:34;61.69;47.61;70.52;;
61321;Laerm;17737;52.586;13.284;2022-10-17T06:46:03;62.63;50.49;73.47;;
61321;Laerm;17737;52.586;13.284;2022-10-17T06:48:32;63.25;52.73;73.13;;
61321;Laerm;17737;52.586;13.284;2022-10-17T06:51:01;65.06;51.78;84.30;;
61321;Laerm;17737;52.586;13.284;2022-10-17T06:53:31;62.24;51.67;75.10;;
61321;Laerm;17737;52.586;13.284;2022-10-17T06:56:00;59.74;48.94;67.73;;
61321;Laerm;17737;52.586;13.284;2022-10-17T06:58:31;62.47;44.80;74.05;;
61321;Laerm;17737;52.586;13.284;2022-10-17T07:01:01;60.98;46.76;68.31;;
61321;Laerm;17737;52.586;13.284;2022-10-17T07:03:31;59.06;47.32;69.30;;
61321;Laerm;17737;52.586;13.284;2022-10-17T07:05:59;60.20;45.45;68.62;;
61321;Laerm;17737;52.586;13.284;2022-10-17T07:08:27;59.96;48.73;68.01;;
61321;Laerm;17737;52.586;13.284;2022-10-17T07:10:56;61.38;46.74;72.97;;
61321;Laerm;17737;52.586;13.284;2022-10-17T07:13:24;59.21;46.48;67.69;;
61321;Laerm;17737;52.586;13.284;2022-10-17T07:15:52;62.82;54.26;73.71;;
61321;Laerm;17737;52.586;13.284;2022-10-17T07:18:23;59.67;45.62;67.53;;
61321;Laerm;17737;52.586;13.284;2022-10-17T07:20:53;58.67;46.04;67.65;;
61321;Laerm;17737;52.586;13.284;2022-10-17T07:23:22;61.91;45.55;73.75;;
61321;Laerm;17737;52.586;13.284;2022-10-17T07:25:50;69.08;45.89;83.73;;
61321;Laerm;17737;52.586;13.284;2022-10-17T07:28:18;61.32;46.84;72.00;;
61321;Laerm;17737;52.586;13.284;2022-10-17T07:30:45;62.19;48.34;72.19;;
61321;Laerm;17737;52.586;13.284;2022-10-17T07:33:20;60.29;46.36;68.21;;
61321;Laerm;17737;52.586;13.284;2022-10-17T07:35:47;61.95;47.52;73.35;;
61321;Laerm;17737;52.586;13.284;2022-10-17T07:38:18;62.64;46.84;72.40;;
61321;Laerm;17737;52.586;13.284;2022-10-17T07:40:53;59.12;45.10;67.35;;
61321;Laerm;17737;52.586;13.284;2022-10-17T07:43:22;60.22;48.14;67.43;;
61321;Laerm;17737;52.586;13.284;2022-10-17T07:45:50;60.68;44.91;73.23;;
61321;Laerm;17737;52.586;13.284;2022-10-17T07:48:19;62.03;44.89;71.94;;
61321;Laerm;17737;52.586;13.284;2022-10-17T07:50:47;60.90;45.07;68.60;;
61321;Laerm;17737;52.586;13.284;2022-10-17T07:53:16;60.29;45.93;69.10;;
61321;Laerm;17737;52.586;13.284;2022-10-17T07:55:45;59.81;45.40;68.25;;
61321;Laerm;17737;52.586;13.284;2022-10-17T07:58:13;61.28;46.04;69.31;;
61321;Laerm;17737;52.586;13.284;2022-10-17T08:00:41;61.11;43.47;71.81;;
61321;Laerm;17737;52.586;13.284;2022-10-17T08:03:10;58.11;44.54;72.60;;
61321;Laerm;17737;52.586;13.284;2022-10-17T08:05:37;60.88;46.04;70.96;;
61321;Laerm;17737;52.586;13.284;2022-10-17T08:08:06;60.16;44.89;69.58;;
61321;Laerm;17737;52.586;13.284;2022-10-17T08:10:33;60.51;44.60;69.61;;
61321;Laerm;17737;52.586;13.284;2022-10-17T08:13:03;59.40;45.23;69.61;;
61321;Laerm;17737;52.586;13.284;2022-10-17T08:15:30;59.86;45.48;69.33;;
61321;Laerm;17737;52.586;13.284;2022-10-17T08:17:58;59.60;43.07;69.00;;
61321;Laerm;17737;52.586;13.284;2022-10-17T08:20:26;57.78;44.04;67.58;;
61321;Laerm;17737;52.586;13.284;2022-10-17T08:22:54;59.13;43.39;69.64;;
61321;Laerm;17737;52.586;13.284;2022-10-17T08:25:22;57.43;44.57;65.23;;
61321;Laerm;17737;52.586;13.284;2022-10-17T08:27:50;58.04;47.08;67.07;;
61321;Laerm;17737;52.586;13.284;2022-10-17T08:30:19;56.98;43.90;67.19;;
61321;Laerm;17737;52.586;13.284;2022-10-17T08:32:47;58.37;44.80;69.39;;
61321;Laerm;17737;52.586;13.284;2022-10-17T08:35:15;57.31;43.07;65.38;;
61321;Laerm;17737;52.586;13.284;2022-10-17T08:37:43;60.10;45.10;71.48;;
61321;Laerm;17737;52.586;13.284;2022-10-17T08:40:19;61.62;46.77;74.86;;
61321;Laerm;17737;52.586;13.284;2022-10-17T08:43:11;59.99;45.87;68.61;;
61321;Laerm;17737;52.586;13.284;2022-10-17T08:45:51;59.26;43.69;68.20;;
61321;Laerm;17737;52.586;13.284;2022-10-17T08:48:23;59.79;43.39;67.63;;
61321;Laerm;17737;52.586;13.284;2022-10-17T08:50:56;58.52;44.39;70.34;;
61321;Laerm;17737;52.586;13.284;2022-10-17T08:53:32;58.04;43.23;68.29;;
61321;Laerm;17737;52.586;13.284;2022-10-17T08:56:18;58.22;43.39;65.74;;
61321;Laerm;17737;52.586;13.284;2022-10-17T08:59:04;59.65;45.87;75.83;;
61321;Laerm;17737;52.586;13.284;2022-10-17T09:01:43;58.30;45.40;67.66;;
61321;Laerm;17737;52.586;13.284;2022-10-17T09:04:43;58.07;43.07;67.15;;
61321;Laerm;17737;52.586;13.284;2022-10-17T09:07:18;60.70;47.80;70.50;;
61321;Laerm;17737;52.586;13.284;2022-10-17T09:10:02;58.59;43.73;70.71;;
61321;Laerm;17737;52.586;13.284;2022-10-17T09:12:39;59.34;46.02;68.62;;
61321;Laerm;17737;52.586;13.284;2022-10-17T09:15:42;59.24;44.77;68.89;;
61321;Laerm;17737;52.586;13.284;2022-10-17T09:18:18;57.57;46.14;66.86;;
61321;Laerm;17737;52.586;13.284;2022-10-17T09:20:53;57.47;44.60;64.64;;
61321;Laerm;17737;52.586;13.284;2022-10-17T09:23:26;60.41;45.78;71.10;;
61321;Laerm;17737;52.586;13.284;2022-10-17T09:25:59;60.43;45.89;73.46;;
61321;Laerm;17737;52.586;13.284;2022-10-17T09:28:32;59.75;44.94;67.71;;
61321;Laerm;17737;52.586;13.284;2022-10-17T09:31:04;59.91;47.95;69.41;;
61321;Laerm;17737;52.586;13.284;2022-10-17T09:33:38;59.08;44.33;67.22;;
61321;Laerm;17737;52.586;13.284;2022-10-17T09:36:23;60.71;46.18;69.73;;
61321;Laerm;17737;52.586;13.284;2022-10-17T09:38:55;58.98;46.86;67.40;;
61321;Laerm;17737;52.586;13.284;2022-10-17T09:41:31;60.62;44.54;71.43;;
61321;Laerm;17737;52.586;13.284;2022-10-17T09:44:23;59.99;43.16;76.89;;
61321;Laerm;17737;52.586;13.284;2022-10-17T09:47:17;59.03;45.15;71.70;;
61321;Laerm;17737;52.586;13.284;2022-10-17T09:49:49;61.39;44.89;71.99;;
61321;Laerm;17737;52.586;13.284;2022-10-17T09:52:21;58.50;45.57;69.02;;
61321;Laerm;17737;52.586;13.284;2022-10-17T09:54:56;61.52;46.57;74.81;;
61321;Laerm;17737;52.586;13.284;2022-10-17T09:57:25;59.13;45.84;69.76;;
61321;Laerm;17737;52.586;13.284;2022-10-17T09:59:59;60.46;45.15;67.80;;
61321;Laerm;17737;52.586;13.284;2022-10-17T10:02:29;58.30;43.69;68.19;;
61321;Laerm;17737;52.586;13.284;2022-10-17T10:05:04;59.70;44.75;70.45;;
61321;Laerm;17737;52.586;13.284;2022-10-17T10:07:37;59.66;44.86;70.82;;
61321;Laerm;17737;52.586;13.284;2022-10-17T10:10:22;60.75;45.13;77.75;;
61321;Laerm;17737;52.586;13.284;2022-10-17T10:13:06;59.97;45.30;67.86;;
61321;Laerm;17737;52.586;13.284;2022-10-17T10:15:45;59.12;45.10;70.48;;
61321;Laerm;17737;52.586;13.284;2022-10-17T10:18:29;59.03;44.94;66.99;;
61321;Laerm;17737;52.586;13.284;2022-10-17T10:21:12;59.44;47.88;70.59;;
61321;Laerm;17737;52.586;13.284;2022-10-17T10:23:43;61.10;47.31;73.76;;
61321;Laerm;17737;52.586;13.284;2022-10-17T10:26:21;71.50;43.90;94.52;;
61321;Laerm;17737;52.586;13.284;2022-10-17T10:28:59;58.98;44.27;70.92;;
61321;Laerm;17737;52.586;13.284;2022-10-17T10:31:33;60.30;44.48;68.32;;
61321;Laerm;17737;52.586;13.284;2022-10-17T10:34:17;56.69;43.47;68.45;;
61321;Laerm;17737;52.586;13.284;2022-10-17T10:36:57;58.96;43.23;73.20;;
61321;Laerm;17737;52.586;13.284;2022-10-17T10:39:35;60.75;43.97;73.85;;
61321;Laerm;17737;52.586;13.284;2022-10-17T10:42:16;59.81;42.72;72.38;;
61321;Laerm;17737;52.586;13.284;2022-10-17T10:44:46;59.66;43.35;72.24;;
61321;Laerm;17737;52.586;13.284;2022-10-17T10:47:24;61.23;43.47;80.51;;
61321;Laerm;17737;52.586;13.284;2022-10-17T10:50:16;60.33;47.07;68.43;;
61321;Laerm;17737;52.586;13.284;2022-10-17T10:52:55;58.47;45.35;68.11;;
61321;Laerm;17737;52.586;13.284;2022-10-17T10:55:30;60.32;43.27;70.33;;
61321;Laerm;17737;52.586;13.284;2022-10-17T10:58:08;61.28;45.25;70.67;;
61321;Laerm;17737;52.586;13.284;2022-10-17T11:00:40;63.74;43.83;75.64;;
61321;Laerm;17737;52.586;13.284;2022-10-17T11:03:16;60.29;44.45;72.92;;
61321;Laerm;17737;52.586;13.284;2022-10-17T11:05:51;57.97;44.31;67.91;;
61321;Laerm;17737;52.586;13.284;2022-10-17T11:08:28;60.52;47.96;67.61;;
61321;Laerm;17737;52.586;13.284;2022-10-17T11:11:12;60.14;44.51;75.54;;
61321;Laerm;17737;52.586;13.284;2022-10-17T11:13:50;59.70;45.13;70.16;;
61321;Laerm;17737;52.586;13.284;2022-10-17T11:16:31;60.71;44.54;70.91;;
61321;Laerm;17737;52.586;13.284;2022-10-17T11:19:09;59.64;44.14;77.03;;
61321;Laerm;17737;52.586;13.284;2022-10-17T11:21:46;58.98;43.43;67.90;;
61321;Laerm;17737;52.586;13.284;2022-10-17T11:24:23;59.26;45.97;69.10;;
61321;Laerm;17737;52.586;13.284;2022-10-17T11:26:59;59.66;44.01;72.79;;
61321;Laerm;17737;52.586;13.284;2022-10-17T11:29:31;62.89;44.91;81.01;;
61321;Laerm;17737;52.586;13.284;2022-10-17T11:32:10;62.07;46.48;76.15;;
61321;Laerm;17737;52.586;13.284;2022-10-17T11:34:45;60.96;46.63;72.59;;
61321;Laerm;17737;52.586;13.284;2022-10-17T11:37:20;61.26;47.05;72.15;;
61321;Laerm;17737;52.586;13.284;2022-10-17T11:39:54;59.79;45.57;69.63;;
61321;Laerm;17737;52.586;13.284;2022-10-17T11:42:28;60.31;48.81;70.44;;
61321;Laerm;17737;52.586;13.284;2022-10-17T11:45:04;62.53;48.28;73.41;;
61321;Laerm;17737;52.586;13.284;2022-10-17T11:47:43;60.63;48.27;69.20;;
61321;Laerm;17737;52.586;13.284;2022-10-17T11:50:22;58.74;45.40;68.90;;
61321;Laerm;17737;52.586;13.284;2022-10-17T11:53:15;62.21;48.04;73.87;;
61321;Laerm;17737;52.586;13.284;2022-10-17T11:55:46;62.51;44.67;75.75;;
61321;Laerm;17737;52.586;13.284;2022-10-17T11:58:30;62.12;50.98;80.65;;
61321;Laerm;17737;52.586;13.284;2022-10-17T12:01:14;58.90;45.40;67.82;;
61321;Laerm;17737;52.586;13.284;2022-10-17T12:04:05;59.27;42.99;70.62;;
61321;Laerm;17737;52.586;13.284;2022-10-17T12:06:58;59.44;44.17;68.49;;
61321;Laerm;17737;52.586;13.284;2022-10-17T12:09:40;60.66;44.94;74.32;;
61321;Laerm;17737;52.586;13.284;2022-10-17T12:12:23;59.71;45.47;70.41;;
61321;Laerm;17737;52.586;13.284;2022-10-17T12:14:52;58.74;44.75;69.78;;
61321;Laerm;17737;52.586;13.284;2022-10-17T12:17:27;60.27;45.38;72.08;;
61321;Laerm;17737;52.586;13.284;2022-10-17T12:20:32;60.38;45.13;76.63;;
61321;Laerm;17737;52.586;13.284;2022-10-17T12:23:24;59.60;46.44;74.49;;
61321;Laerm;17737;52.586;13.284;2022-10-17T12:25:55;61.95;49.32;72.61;;
61321;Laerm;17737;52.586;13.284;2022-10-17T12:28:33;58.94;43.39;68.58;;
61321;Laerm;17737;52.586;13.284;2022-10-17T12:31:21;58.88;45.78;70.17;;
61321;Laerm;17737;52.586;13.284;2022-10-17T12:34:03;58.98;43.43;69.03;;
61321;Laerm;17737;52.586;13.284;2022-10-17T12:36:39;61.11;47.70;72.97;;
61321;Laerm;17737;52.586;13.284;2022-10-17T12:39:49;60.33;46.76;73.71;;
61321;Laerm;17737;52.586;13.284;2022-10-17T12:42:44;60.98;46.38;72.80;;
61321;Laerm;17737;52.586;13.284;2022-10-17T12:45:47;60.35;44.23;79.82;;
61321;Laerm;17737;52.586;13.284;2022-10-17T12:49:15;61.57;46.32;72.67;;
61321;Laerm;17737;52.586;13.284;2022-10-17T12:52:23;58.63;45.07;69.08;;
61321;Laerm;17737;52.586;13.284;2022-10-17T12:55:00;61.24;48.69;71.13;;
61321;Laerm;17737;52.586;13.284;2022-10-17T12:57:50;61.43;44.94;73.01;;
61321;Laerm;17737;52.586;13.284;2022-10-17T13:00:30;62.25;46.55;75.27;;
61321;Laerm;17737;52.586;13.284;2022-10-17T13:03:09;57.99;45.82;66.29;;
61321;Laerm;17737;52.586;13.284;2022-10-17T13:05:42;60.06;49.40;74.36;;
61321;Laerm;17737;52.586;13.284;2022-10-17T13:08:18;59.39;45.55;72.55;;
61321;Laerm;17737;52.586;13.284;2022-10-17T13:10:50;59.35;46.70;67.82;;
61321;Laerm;17737;52.586;13.284;2022-10-17T13:13:22;62.95;48.72;79.18;;
61321;Laerm;17737;52.586;13.284;2022-10-17T13:15:53;60.96;48.54;71.61;;
61321;Laerm;17737;52.586;13.284;2022-10-17T13:18:25;65.08;49.00;85.45;;
61321;Laerm;17737;52.586;13.284;2022-10-17T13:20:57;75.19;47.21;99.16;;
61321;Laerm;17737;52.586;13.284;2022-10-17T13:23:31;59.03;43.87;69.17;;
61321;Laerm;17737;52.586;13.284;2022-10-17T13:26:19;61.97;45.30;69.96;;
61321;Laerm;17737;52.586;13.284;2022-10-17T13:29:01;61.60;46.46;75.30;;
61321;Laerm;17737;52.586;13.284;2022-10-17T13:31:31;59.79;46.95;67.88;;
61321;Laerm;17737;52.586;13.284;2022-10-17T13:34:04;59.21;45.10;69.11;;
61321;Laerm;17737;52.586;13.284;2022-10-17T13:36:33;59.43;43.73;71.72;;
61321;Laerm;17737;52.586;13.284;2022-10-17T13:39:05;62.08;45.59;71.61;;
61321;Laerm;17737;52.586;13.284;2022-10-17T13:41:39;59.50;46.48;66.81;;
61321;Laerm;17737;52.586;13.284;2022-10-17T13:44:14;59.67;48.32;67.32;;
61321;Laerm;17737;52.586;13.284;2022-10-17T13:46:43;66.45;46.28;90.19;;
61321;Laerm;17737;52.586;13.284;2022-10-17T13:49:19;62.21;44.51;71.93;;
61321;Laerm;17737;52.586;13.284;2022-10-17T13:51:55;59.93;44.14;75.09;;
61321;Laerm;17737;52.586;13.284;2022-10-17T13:54:34;58.44;43.43;67.88;;
61321;Laerm;17737;52.586;13.284;2022-10-17T13:57:13;62.45;48.23;74.15;;
61321;Laerm;17737;52.586;13.284;2022-10-17T13:59:46;58.83;43.79;68.59;;
61321;Laerm;17737;52.586;13.284;2022-10-17T14:02:23;63.03;46.34;78.69;;
61321;Laerm;17737;52.586;13.284;2022-10-17T14:05:10;60.29;46.00;68.79;;
61321;Laerm;17737;52.586;13.284;2022-10-17T14:07:51;60.55;44.77;73.02;;
61321;Laerm;17737;52.586;13.284;2022-10-17T14:10:41;61.19;44.77;70.34;;
61321;Laerm;17737;52.586;13.284;2022-10-17T14:13:22;59.26;44.69;69.32;;